Histria Prince — V7QT2 — position and weather

sailwx.info

Track history (hours):
 
Tides and Currents Weather Stations Pressure Air Temp Water Temp Dewpoint Dewpoint Depression Visibility Wind Speed Wind Dir Waves Ship Positions

Histria Prince

Last reported at 2017-Nov-18 15:14 UTC. Time now 2017-Nov-21 05:57 UTC.
Position N 31°57' W 080°27'.

Length 179 m; draft 7.5 m.

Type: Ship (hazmat cat A). MMSI: 538003431.

Date/timePositionNaut miles runAvg speedWind from/ knotsBaromVisibWave heightAir tempDewpointWater temp
2017-Nov-18 15:14N 31°57' W 080°27'4 9.7
2017-Nov-18 14:51N 31°56' W 080°31'3 9.6
2017-Nov-18 14:30N 31°56' W 080°35'510.0
2017-Nov-18 14:00N 31°57' W 080°41'510.7
2017-Nov-18 13:30N 31°59' W 080°46'611.7
2017-Nov-18 13:00N 32°02' W 080°52'510.1
2017-Nov-18 12:30N 32°04' W 080°58'3 6.6
2017-Nov-18 12:00N 32°06' W 081°01'4 7.6
2017-Nov-18 11:30N 32°05' W 081°05'2 4.8
2017-Nov-18 11:00N 32°07' W 081°07'0 0.1
2017-Nov-18 10:26N 32°07' W 081°07'0 0.0
2017-Nov-18 09:56N 32°07' W 081°07'0 0.0
2017-Nov-18 09:20N 32°07' W 081°07'0 0.0
2017-Nov-18 08:50N 32°07' W 081°07'0 0.0
2017-Nov-18 08:26N 32°07' W 081°07'0 0.0
2017-Nov-18 07:56N 32°07' W 081°07'0 0.0
2017-Nov-18 07:14N 32°07' W 081°07'0 0.0
2017-Nov-18 06:50N 32°07' W 081°07'0 0.0
2017-Nov-18 06:26N 32°07' W 081°07'0 0.0
2017-Nov-18 05:56N 32°07' W 081°07'0 0.0
2017-Nov-18 05:26N 32°07' W 081°07'0 0.0
2017-Nov-18 04:38N 32°07' W 081°07'0 0.0
2017-Nov-18 04:26N 32°07' W 081°07'0 0.0
2017-Nov-18 03:50N 32°07' W 081°07'0 0.0
2017-Nov-18 03:26N 32°07' W 081°07'0 0.0
2017-Nov-18 02:56N 32°07' W 081°07'0 0.0
2017-Nov-18 02:20N 32°07' W 081°07'0 0.0
2017-Nov-18 01:56N 32°07' W 081°07'0 0.0
2017-Nov-18 01:26N 32°07' W 081°07'0 0.0
2017-Nov-18 00:56N 32°07' W 081°07'0 0.0
2017-Nov-18 00:26N 32°07' W 081°07'0 0.0
2017-Nov-17 23:56N 32°07' W 081°07'0 0.0
2017-Nov-17 23:26N 32°07' W 081°07'0 0.0
2017-Nov-17 22:56N 32°07' W 081°07'0 0.0
2017-Nov-17 22:20N 32°07' W 081°07'0 0.0
2017-Nov-17 21:56N 32°07' W 081°07'0 0.0
2017-Nov-17 21:26N 32°07' W 081°07'0 0.0
2017-Nov-17 20:56N 32°07' W 081°07'0 0.0
2017-Nov-17 20:14N 32°07' W 081°07'0 0.0
2017-Nov-17 19:56N 32°07' W 081°07'0 0.0
2017-Nov-17 19:26N 32°07' W 081°07'0 0.0
2017-Nov-17 18:56N 32°07' W 081°07'0 0.0
2017-Nov-17 18:26N 32°07' W 081°07'0 0.0
2017-Nov-17 17:50N 32°07' W 081°07'0 0.0
2017-Nov-17 17:20N 32°07' W 081°07'0 0.0
2017-Nov-17 16:56N 32°07' W 081°07'0 0.0
2017-Nov-17 16:26N 32°07' W 081°07'0 0.0
2017-Nov-17 15:50N 32°07' W 081°07'0 0.0
2017-Nov-17 15:26N 32°07' W 081°07'0 0.0
2017-Nov-17 14:56N 32°07' W 081°07'0 0.0
2017-Nov-17 14:26N 32°07' W 081°07'0 0.0
2017-Nov-17 13:56N 32°07' W 081°07'0 0.0
2017-Nov-17 13:20N 32°07' W 081°07'0 0.0
2017-Nov-17 12:56N 32°07' W 081°07'0 0.0
2017-Nov-17 12:26N 32°07' W 081°07'0 0.0
2017-Nov-17 11:56N 32°07' W 081°07'0 0.0
2017-Nov-17 11:26N 32°07' W 081°07'0 0.0
2017-Nov-17 10:38N 32°07' W 081°07'0 0.0
2017-Nov-17 10:26N 32°07' W 081°07'0 0.0
2017-Nov-17 09:56N 32°07' W 081°07'0 0.0
2017-Nov-17 09:26N 32°07' W 081°07'0 0.0
2017-Nov-17 08:56N 32°07' W 081°07'0 0.0
2017-Nov-17 08:26N 32°07' W 081°07'0 0.0
2017-Nov-17 07:56N 32°07' W 081°07'0 0.0
2017-Nov-17 07:26N 32°07' W 081°07'0 0.0
2017-Nov-17 06:56N 32°07' W 081°07'0 0.9
2017-Nov-17 06:30N 32°06' W 081°07'3 5.5
2017-Nov-17 06:00N 32°05' W 081°04'3 7.0
2017-Nov-17 05:31N 32°06' W 081°01'5 9.2
2017-Nov-17 05:01N 32°03' W 080°56'5 9.0
2017-Nov-17 04:30N 32°02' W 080°51'510.0
2017-Nov-17 04:01N 31°59' W 080°46'611.1
2017-Nov-17 03:31N 31°57' W 080°41'5 9.6
2017-Nov-17 03:00N 31°56' W 080°35'510.6
2017-Nov-17 02:29N 31°56' W 080°28'58 4.9
2017-Nov-16 14:48N 32°46' W 079°53'0 0.0
2017-Nov-16 14:21N 32°46' W 079°53'0 0.0
2017-Nov-16 14:00N 32°46' W 079°53'0 0.0
2017-Nov-16 13:30N 32°46' W 079°53'0 0.1
2017-Nov-16 13:00N 32°46' W 079°53'1 1.3
2017-Nov-16 12:30N 32°46' W 079°53'4 3.6
2017-Nov-16 11:28N 32°50' W 079°56'0 0.0
2017-Nov-16 10:58N 32°50' W 079°56'0 0.0
2017-Nov-16 10:28N 32°50' W 079°56'0 0.0
2017-Nov-16 09:55N 32°50' W 079°56'0 0.0
2017-Nov-16 09:28N 32°50' W 079°56'0 0.0
2017-Nov-16 08:58N 32°50' W 079°56'0 0.0
2017-Nov-16 08:28N 32°50' W 079°56'0 0.0
2017-Nov-16 07:58N 32°50' W 079°56'0 0.0
2017-Nov-16 07:28N 32°50' W 079°56'0 0.0
2017-Nov-16 06:58N 32°50' W 079°56'0 0.0
2017-Nov-16 06:28N 32°50' W 079°56'0 0.0
2017-Nov-16 05:58N 32°50' W 079°56'0 0.0
2017-Nov-16 05:28N 32°50' W 079°56'0 0.0
2017-Nov-16 04:58N 32°50' W 079°56'0 0.0
2017-Nov-16 04:28N 32°50' W 079°56'0 0.0
2017-Nov-16 03:58N 32°50' W 079°56'0 0.0
2017-Nov-16 03:28N 32°50' W 079°56'0 0.0
2017-Nov-16 02:58N 32°50' W 079°56'0 0.0
2017-Nov-16 02:28N 32°50' W 079°56'0 0.0
2017-Nov-16 01:58N 32°50' W 079°56'0 0.0
2017-Nov-16 01:28N 32°50' W 079°56'0 0.0
2017-Nov-16 00:58N 32°50' W 079°56'0 0.0
2017-Nov-15 20:49N 32°50' W 079°56'0 0.0
2017-Nov-15 20:25N 32°50' W 079°56'0 0.0
2017-Nov-15 19:58N 32°50' W 079°56'0 0.0
2017-Nov-15 19:28N 32°50' W 079°56'0 0.0
2017-Nov-15 18:58N 32°50' W 079°56'0 0.0
2017-Nov-15 18:28N 32°50' W 079°56'0 0.0
2017-Nov-15 17:58N 32°50' W 079°56'0 0.0
2017-Nov-15 17:28N 32°50' W 079°56'0 0.0
2017-Nov-15 16:58N 32°50' W 079°56'0 0.0
2017-Nov-15 16:28N 32°50' W 079°56'0 0.0
2017-Nov-15 15:55N 32°50' W 079°56'0 0.0
2017-Nov-15 14:19N 32°50' W 079°56'0 0.0
2017-Nov-15 13:55N 32°50' W 079°56'0 0.0
2017-Nov-15 13:28N 32°50' W 079°56'0 0.0
2017-Nov-15 12:58N 32°50' W 079°56'0 0.0
2017-Nov-15 12:28N 32°50' W 079°56'0 0.0
2017-Nov-15 11:58N 32°50' W 079°56'0 0.0
2017-Nov-15 11:28N 32°50' W 079°56'0 0.0
2017-Nov-15 10:58N 32°50' W 079°56'0 0.0
2017-Nov-15 10:28N 32°50' W 079°56'0 0.0
2017-Nov-15 09:58N 32°50' W 079°56'0 0.0
2017-Nov-15 09:28N 32°50' W 079°56'0 0.0
2017-Nov-15 08:58N 32°50' W 079°56'0 0.0
2017-Nov-15 08:28N 32°50' W 079°56'0 0.0
2017-Nov-15 07:58N 32°50' W 079°56'0 0.0
2017-Nov-15 07:28N 32°50' W 079°56'0 0.0
2017-Nov-15 06:58N 32°50' W 079°56'0 0.0
2017-Nov-15 06:28N 32°50' W 079°56'0 0.0
2017-Nov-15 05:58N 32°50' W 079°56'0 0.0
2017-Nov-15 05:28N 32°50' W 079°56'0 0.0
2017-Nov-15 04:49N 32°50' W 079°56'0 0.0
2017-Nov-15 04:28N 32°50' W 079°56'0 0.0
2017-Nov-15 03:58N 32°50' W 079°56'0 0.0
2017-Nov-15 03:25N 32°50' W 079°56'0 0.0
2017-Nov-15 02:55N 32°50' W 079°56'0 0.0
2017-Nov-15 02:28N 32°50' W 079°56'0 0.0
2017-Nov-15 01:58N 32°50' W 079°56'0 0.0
2017-Nov-15 01:28N 32°50' W 079°56'0 0.0
2017-Nov-15 00:58N 32°50' W 079°56'0 0.0
2017-Nov-15 00:28N 32°50' W 079°56'0 0.0
2017-Nov-14 23:55N 32°50' W 079°56'1 1.3
2017-Nov-14 23:30N 32°49' W 079°56'3 6.5
2017-Nov-14 23:00N 32°46' W 079°53'611.2
2017-Nov-14 22:30N 32°43' W 079°48'611.1
2017-Nov-14 22:00N 32°40' W 079°42'510.5
2017-Nov-14 21:30N 32°38' W 079°37'3 5.6
2017-Nov-14 20:59N 32°37' W 079°34'0 0.9
2017-Nov-14 20:30N 32°37' W 079°33'1 1.5
2017-Nov-14 20:00N 32°37' W 079°34'1 2.5
2017-Nov-14 19:30N 32°37' W 079°33'1 1.4
2017-Nov-14 19:00N 32°37' W 079°32'1 1.5
2017-Nov-14 18:28N 32°37' W 079°31'1 1.3
2017-Nov-14 17:59N 32°38' W 079°30'  
Track history (hours):
 
Tides and Currents Weather Stations Pressure Air Temp Water Temp Dewpoint Dewpoint Depression Visibility Wind Speed Wind Dir Waves Ship Positions

Histria Prince

Last reported at 2017-Nov-18 15:14 UTC. Time now 2017-Nov-21 05:57 UTC.
Position N 31°57' W 080°27'.

Length 179 m; draft 7.5 m.

Type: Ship (hazmat cat A). MMSI: 538003431.

Date/timePositionNaut miles runAvg speedWind from/ knotsBaromVisibWave heightAir tempDewpointWater temp
2017-Nov-18 15:14N 31°57' W 080°27'4 9.7
2017-Nov-18 14:51N 31°56' W 080°31'3 9.6
2017-Nov-18 14:30N 31°56' W 080°35'510.0
2017-Nov-18 14:00N 31°57' W 080°41'510.7
2017-Nov-18 13:30N 31°59' W 080°46'611.7
2017-Nov-18 13:00N 32°02' W 080°52'510.1
2017-Nov-18 12:30N 32°04' W 080°58'3 6.6
2017-Nov-18 12:00N 32°06' W 081°01'4 7.6
2017-Nov-18 11:30N 32°05' W 081°05'2 4.8
2017-Nov-18 11:00N 32°07' W 081°07'0 0.1
2017-Nov-18 10:26N 32°07' W 081°07'0 0.0
2017-Nov-18 09:56N 32°07' W 081°07'0 0.0
2017-Nov-18 09:20N 32°07' W 081°07'0 0.0
2017-Nov-18 08:50N 32°07' W 081°07'0 0.0
2017-Nov-18 08:26N 32°07' W 081°07'0 0.0
2017-Nov-18 07:56N 32°07' W 081°07'0 0.0
2017-Nov-18 07:14N 32°07' W 081°07'0 0.0
2017-Nov-18 06:50N 32°07' W 081°07'0 0.0
2017-Nov-18 06:26N 32°07' W 081°07'0 0.0
2017-Nov-18 05:56N 32°07' W 081°07'0 0.0
2017-Nov-18 05:26N 32°07' W 081°07'0 0.0
2017-Nov-18 04:38N 32°07' W 081°07'0 0.0
2017-Nov-18 04:26N 32°07' W 081°07'0 0.0
2017-Nov-18 03:50N 32°07' W 081°07'0 0.0
2017-Nov-18 03:26N 32°07' W 081°07'0 0.0
2017-Nov-18 02:56N 32°07' W 081°07'0 0.0
2017-Nov-18 02:20N 32°07' W 081°07'0 0.0
2017-Nov-18 01:56N 32°07' W 081°07'0 0.0
2017-Nov-18 01:26N 32°07' W 081°07'0 0.0
2017-Nov-18 00:56N 32°07' W 081°07'0 0.0
2017-Nov-18 00:26N 32°07' W 081°07'0 0.0
2017-Nov-17 23:56N 32°07' W 081°07'0 0.0
2017-Nov-17 23:26N 32°07' W 081°07'0 0.0
2017-Nov-17 22:56N 32°07' W 081°07'0 0.0
2017-Nov-17 22:20N 32°07' W 081°07'0 0.0
2017-Nov-17 21:56N 32°07' W 081°07'0 0.0
2017-Nov-17 21:26N 32°07' W 081°07'0 0.0
2017-Nov-17 20:56N 32°07' W 081°07'0 0.0
2017-Nov-17 20:14N 32°07' W 081°07'0 0.0
2017-Nov-17 19:56N 32°07' W 081°07'0 0.0
2017-Nov-17 19:26N 32°07' W 081°07'0 0.0
2017-Nov-17 18:56N 32°07' W 081°07'0 0.0
2017-Nov-17 18:26N 32°07' W 081°07'0 0.0
2017-Nov-17 17:50N 32°07' W 081°07'0 0.0
2017-Nov-17 17:20N 32°07' W 081°07'0 0.0
2017-Nov-17 16:56N 32°07' W 081°07'0 0.0
2017-Nov-17 16:26N 32°07' W 081°07'0 0.0
2017-Nov-17 15:50N 32°07' W 081°07'0 0.0
2017-Nov-17 15:26N 32°07' W 081°07'0 0.0
2017-Nov-17 14:56N 32°07' W 081°07'0 0.0
2017-Nov-17 14:26N 32°07' W 081°07'0 0.0
2017-Nov-17 13:56N 32°07' W 081°07'0 0.0
2017-Nov-17 13:20N 32°07' W 081°07'0 0.0
2017-Nov-17 12:56N 32°07' W 081°07'0 0.0
2017-Nov-17 12:26N 32°07' W 081°07'0 0.0
2017-Nov-17 11:56N 32°07' W 081°07'0 0.0
2017-Nov-17 11:26N 32°07' W 081°07'0 0.0
2017-Nov-17 10:38N 32°07' W 081°07'0 0.0
2017-Nov-17 10:26N 32°07' W 081°07'0 0.0
2017-Nov-17 09:56N 32°07' W 081°07'0 0.0
2017-Nov-17 09:26N 32°07' W 081°07'0 0.0
2017-Nov-17 08:56N 32°07' W 081°07'0 0.0
2017-Nov-17 08:26N 32°07' W 081°07'0 0.0
2017-Nov-17 07:56N 32°07' W 081°07'0 0.0
2017-Nov-17 07:26N 32°07' W 081°07'0 0.0
2017-Nov-17 06:56N 32°07' W 081°07'0 0.9
2017-Nov-17 06:30N 32°06' W 081°07'3 5.5
2017-Nov-17 06:00N 32°05' W 081°04'3 7.0
2017-Nov-17 05:31N 32°06' W 081°01'5 9.2
2017-Nov-17 05:01N 32°03' W 080°56'5 9.0
2017-Nov-17 04:30N 32°02' W 080°51'510.0
2017-Nov-17 04:01N 31°59' W 080°46'611.1
2017-Nov-17 03:31N 31°57' W 080°41'5 9.6
2017-Nov-17 03:00N 31°56' W 080°35'510.6
2017-Nov-17 02:29N 31°56' W 080°28'58 4.9
2017-Nov-16 14:48N 32°46' W 079°53'0 0.0
2017-Nov-16 14:21N 32°46' W 079°53'0 0.0
2017-Nov-16 14:00N 32°46' W 079°53'0 0.0
2017-Nov-16 13:30N 32°46' W 079°53'0 0.1
2017-Nov-16 13:00N 32°46' W 079°53'1 1.3
2017-Nov-16 12:30N 32°46' W 079°53'4 3.6
2017-Nov-16 11:28N 32°50' W 079°56'0 0.0
2017-Nov-16 10:58N 32°50' W 079°56'0 0.0
2017-Nov-16 10:28N 32°50' W 079°56'0 0.0
2017-Nov-16 09:55N 32°50' W 079°56'0 0.0
2017-Nov-16 09:28N 32°50' W 079°56'0 0.0
2017-Nov-16 08:58N 32°50' W 079°56'0 0.0
2017-Nov-16 08:28N 32°50' W 079°56'0 0.0
2017-Nov-16 07:58N 32°50' W 079°56'0 0.0
2017-Nov-16 07:28N 32°50' W 079°56'0 0.0
2017-Nov-16 06:58N 32°50' W 079°56'0 0.0
2017-Nov-16 06:28N 32°50' W 079°56'0 0.0
2017-Nov-16 05:58N 32°50' W 079°56'0 0.0
2017-Nov-16 05:28N 32°50' W 079°56'0 0.0
2017-Nov-16 04:58N 32°50' W 079°56'0 0.0
2017-Nov-16 04:28N 32°50' W 079°56'0 0.0
2017-Nov-16 03:58N 32°50' W 079°56'0 0.0
2017-Nov-16 03:28N 32°50' W 079°56'0 0.0
2017-Nov-16 02:58N 32°50' W 079°56'0 0.0
2017-Nov-16 02:28N 32°50' W 079°56'0 0.0
2017-Nov-16 01:58N 32°50' W 079°56'0 0.0
2017-Nov-16 01:28N 32°50' W 079°56'0 0.0
2017-Nov-16 00:58N 32°50' W 079°56'0 0.0
2017-Nov-15 20:49N 32°50' W 079°56'0 0.0
2017-Nov-15 20:25N 32°50' W 079°56'0 0.0
2017-Nov-15 19:58N 32°50' W 079°56'0 0.0
2017-Nov-15 19:28N 32°50' W 079°56'0 0.0
2017-Nov-15 18:58N 32°50' W 079°56'0 0.0
2017-Nov-15 18:28N 32°50' W 079°56'0 0.0
2017-Nov-15 17:58N 32°50' W 079°56'0 0.0
2017-Nov-15 17:28N 32°50' W 079°56'0 0.0
2017-Nov-15 16:58N 32°50' W 079°56'0 0.0
2017-Nov-15 16:28N 32°50' W 079°56'0 0.0
2017-Nov-15 15:55N 32°50' W 079°56'0 0.0
2017-Nov-15 14:19N 32°50' W 079°56'0 0.0
2017-Nov-15 13:55N 32°50' W 079°56'0 0.0
2017-Nov-15 13:28N 32°50' W 079°56'0 0.0
2017-Nov-15 12:58N 32°50' W 079°56'0 0.0
2017-Nov-15 12:28N 32°50' W 079°56'0 0.0
2017-Nov-15 11:58N 32°50' W 079°56'0 0.0
2017-Nov-15 11:28N 32°50' W 079°56'0 0.0
2017-Nov-15 10:58N 32°50' W 079°56'0 0.0
2017-Nov-15 10:28N 32°50' W 079°56'0 0.0
2017-Nov-15 09:58N 32°50' W 079°56'0 0.0
2017-Nov-15 09:28N 32°50' W 079°56'0 0.0
2017-Nov-15 08:58N 32°50' W 079°56'0 0.0
2017-Nov-15 08:28N 32°50' W 079°56'0 0.0
2017-Nov-15 07:58N 32°50' W 079°56'0 0.0
2017-Nov-15 07:28N 32°50' W 079°56'0 0.0
2017-Nov-15 06:58N 32°50' W 079°56'0 0.0
2017-Nov-15 06:28N 32°50' W 079°56'0 0.0
2017-Nov-15 05:58N 32°50' W 079°56'0 0.0
2017-Nov-15 05:28N 32°50' W 079°56'0 0.0
2017-Nov-15 04:49N 32°50' W 079°56'0 0.0
2017-Nov-15 04:28N 32°50' W 079°56'0 0.0
2017-Nov-15 03:58N 32°50' W 079°56'0 0.0
2017-Nov-15 03:25N 32°50' W 079°56'0 0.0
2017-Nov-15 02:55N 32°50' W 079°56'0 0.0
2017-Nov-15 02:28N 32°50' W 079°56'0 0.0
2017-Nov-15 01:58N 32°50' W 079°56'0 0.0
2017-Nov-15 01:28N 32°50' W 079°56'0 0.0
2017-Nov-15 00:58N 32°50' W 079°56'0 0.0
2017-Nov-15 00:28N 32°50' W 079°56'0 0.0
2017-Nov-14 23:55N 32°50' W 079°56'1 1.3
2017-Nov-14 23:30N 32°49' W 079°56'3 6.5
2017-Nov-14 23:00N 32°46' W 079°53'611.2
2017-Nov-14 22:30N 32°43' W 079°48'611.1
2017-Nov-14 22:00N 32°40' W 079°42'510.5
2017-Nov-14 21:30N 32°38' W 079°37'3 5.6
2017-Nov-14 20:59N 32°37' W 079°34'0 0.9
2017-Nov-14 20:30N 32°37' W 079°33'1 1.5
2017-Nov-14 20:00N 32°37' W 079°34'1 2.5
2017-Nov-14 19:30N 32°37' W 079°33'1 1.4
2017-Nov-14 19:00N 32°37' W 079°32'1 1.5
2017-Nov-14 18:28N 32°37' W 079°31'1 1.3
2017-Nov-14 17:59N 32°38' W 079°30'  

Dump ship's entire track history